createdAt,value
2023-03-22T00:01:32.538Z,4.60
2023-03-22T00:04:01.461Z,4.97
2023-03-22T00:06:31.251Z,4.57
2023-03-22T00:09:06.792Z,4.95
2023-03-22T00:11:33.448Z,4.93
2023-03-22T00:14:02.343Z,4.47
2023-03-22T00:16:31.221Z,4.85
2023-03-22T00:19:02.657Z,4.70
2023-03-22T00:21:32.052Z,5.18
2023-03-22T00:24:03.331Z,4.60
2023-03-22T00:29:02.052Z,4.50
2023-03-22T00:31:31.221Z,4.75
2023-03-22T00:33:59.434Z,4.45
2023-03-22T00:36:26.053Z,4.30
2023-03-22T00:38:58.649Z,4.57
2023-03-22T00:41:27.708Z,4.35
2023-03-22T00:43:58.091Z,4.32
2023-03-22T00:46:26.926Z,4.97
2023-03-22T00:48:56.039Z,4.20
2023-03-22T00:51:24.580Z,4.55
2023-03-22T00:53:56.702Z,4.63
2023-03-22T00:56:25.620Z,4.60
2023-03-22T00:58:55.827Z,4.38
2023-03-22T01:01:25.621Z,4.40
2023-03-22T01:03:52.363Z,4.47
2023-03-22T01:06:20.099Z,4.57
2023-03-22T01:08:51.356Z,4.18
2023-03-22T01:13:50.084Z,4.22
2023-03-22T01:16:16.972Z,3.95
2023-03-22T01:18:46.023Z,4.10
2023-03-22T01:21:23.761Z,4.45
2023-03-22T01:23:58.196Z,3.92
2023-03-22T01:26:24.886Z,4.05
2023-03-22T01:28:53.329Z,3.75
2023-03-22T01:31:22.476Z,4.07
2023-03-22T01:33:49.163Z,3.85
2023-03-22T01:36:20.351Z,3.90
2023-03-22T01:41:21.239Z,3.78
2023-03-22T01:44:12.730Z,4.00
2023-03-22T01:49:17.088Z,3.78
2023-03-22T01:51:48.946Z,3.70
2023-03-22T01:54:42.890Z,3.90
2023-03-22T01:57:09.647Z,3.92
2023-03-22T01:59:36.636Z,3.88
2023-03-22T02:02:06.692Z,4.22
2023-03-22T02:04:36.835Z,3.70
2023-03-22T02:07:10.433Z,3.50
2023-03-22T02:09:42.443Z,3.75
2023-03-22T02:12:37.640Z,3.50
2023-03-22T02:15:13.142Z,3.42
2023-03-22T02:17:59.797Z,4.20
2023-03-22T02:21:02.505Z,3.47
2023-03-22T02:23:49.712Z,3.65
2023-03-22T02:26:54.524Z,3.70
2023-03-22T02:29:45.129Z,3.75
2023-03-22T02:32:33.743Z,3.40
2023-03-22T02:35:13.223Z,4.00
2023-03-22T02:38:10.332Z,3.72
2023-03-22T02:41:01.647Z,4.00
2023-03-22T02:44:07.158Z,3.95
2023-03-22T02:46:42.369Z,3.60
2023-03-22T02:49:30.710Z,3.70
2023-03-22T02:52:07.619Z,3.45
2023-03-22T02:55:01.620Z,3.80
2023-03-22T02:57:53.585Z,3.38
2023-03-22T03:00:22.477Z,3.22
2023-03-22T03:02:59.413Z,3.70
2023-03-22T03:05:26.084Z,3.72
2023-03-22T03:07:59.521Z,3.60
2023-03-22T03:10:26.346Z,3.40
2023-03-22T03:12:55.156Z,3.90
2023-03-22T03:15:26.478Z,3.50
2023-03-22T03:18:08.545Z,3.42
2023-03-22T03:20:44.289Z,3.70
2023-03-22T03:23:28.392Z,3.45
2023-03-22T03:26:03.107Z,3.35
2023-03-22T03:28:39.748Z,3.10
2023-03-22T03:31:09.332Z,3.35
2023-03-22T03:33:49.797Z,3.50
2023-03-22T03:36:24.708Z,3.00
2023-03-22T03:38:53.752Z,3.28
2023-03-22T03:41:30.764Z,3.20
2023-03-22T03:43:59.670Z,3.30
2023-03-22T03:46:29.138Z,3.20
2023-03-22T03:48:59.105Z,2.97
2023-03-22T03:51:26.633Z,3.15
2023-03-22T03:53:55.663Z,3.20
2023-03-22T03:56:27.838Z,3.00
2023-03-22T03:58:59.193Z,2.92
2023-03-22T04:01:26.513Z,2.72
2023-03-22T04:03:55.565Z,2.83
2023-03-22T04:06:27.354Z,2.97
2023-03-22T04:08:58.091Z,3.08
2023-03-22T04:11:24.963Z,3.33
2023-03-22T04:13:56.278Z,3.10
2023-03-22T04:16:27.776Z,3.42
2023-03-22T04:18:59.968Z,3.20
2023-03-22T04:21:28.950Z,3.00
2023-03-22T04:23:55.803Z,3.40
2023-03-22T04:26:26.218Z,3.00
2023-03-22T04:28:56.732Z,2.95
2023-03-22T04:31:26.534Z,3.35
2023-03-22T04:33:58.322Z,3.00
2023-03-22T04:36:32.675Z,3.13
2023-03-22T04:39:02.778Z,2.70
2023-03-22T04:41:33.905Z,2.97
2023-03-22T04:44:03.554Z,3.10
2023-03-22T04:46:37.160Z,2.80
2023-03-22T04:49:08.910Z,2.88
2023-03-22T04:51:41.733Z,2.85
2023-03-22T04:54:09.578Z,2.88
2023-03-22T04:56:37.302Z,3.05
2023-03-22T04:59:03.904Z,2.80
2023-03-22T05:01:35.439Z,2.80
2023-03-22T05:04:04.310Z,2.60
2023-03-22T05:06:33.735Z,2.63
2023-03-22T05:09:01.049Z,2.78
2023-03-22T05:11:28.189Z,2.80
2023-03-22T05:13:55.450Z,2.67
2023-03-22T05:16:27.318Z,2.88
2023-03-22T05:18:54.500Z,2.47
2023-03-22T05:21:28.467Z,2.50
2023-03-22T05:24:01.778Z,2.78
2023-03-22T05:26:28.457Z,2.70
2023-03-22T05:28:58.299Z,2.85
2023-03-22T05:31:28.617Z,2.60
2023-03-22T05:33:55.388Z,2.67
2023-03-22T05:36:30.878Z,2.88
2023-03-22T05:39:02.810Z,2.70
2023-03-22T05:41:31.905Z,2.70
2023-03-22T05:43:58.715Z,2.72
2023-03-22T05:46:25.789Z,2.65
2023-03-22T05:48:56.614Z,2.70
2023-03-22T05:51:25.667Z,2.60
2023-03-22T05:53:54.713Z,2.72
2023-03-22T05:56:26.175Z,2.70
2023-03-22T05:58:56.082Z,2.60
2023-03-22T06:01:26.046Z,2.70
2023-03-22T06:03:55.519Z,2.47
2023-03-22T06:06:26.857Z,2.60
2023-03-22T06:09:04.307Z,2.83
2023-03-22T06:11:44.606Z,2.75
2023-03-22T06:14:14.165Z,2.73
2023-03-22T06:16:45.561Z,2.40
2023-03-22T06:19:14.479Z,2.88
2023-03-22T06:21:46.397Z,2.80
2023-03-22T06:24:15.181Z,2.75
2023-03-22T06:26:44.953Z,2.65
2023-03-22T06:29:13.963Z,2.60
2023-03-22T06:31:42.803Z,2.63
2023-03-22T06:34:12.197Z,2.67
2023-03-22T06:36:40.954Z,2.88
2023-03-22T06:39:08.018Z,2.60
2023-03-22T06:41:34.728Z,2.83
2023-03-22T06:44:03.573Z,2.90
2023-03-22T06:46:32.704Z,3.92
2023-03-22T06:49:06.823Z,3.90
2023-03-22T06:51:36.651Z,4.07
2023-03-22T06:56:44.728Z,4.20
2023-03-22T07:15:24.832Z,4.82
2023-03-22T07:17:54.878Z,4.55
2023-03-22T07:23:04.194Z,4.80
2023-03-22T07:34:24.976Z,4.07
2023-03-22T07:36:56.846Z,3.90
2023-03-22T07:39:29.331Z,4.22
2023-03-22T07:41:57.340Z,3.65
2023-03-22T07:44:29.289Z,4.10
2023-03-22T07:46:56.619Z,4.45
2023-03-22T07:49:27.239Z,4.05
2023-03-22T07:51:59.532Z,3.97
2023-03-22T07:54:34.218Z,3.88
2023-03-22T07:57:01.330Z,3.92
2023-03-22T07:59:28.024Z,4.05
2023-03-22T08:01:57.377Z,4.10
2023-03-22T08:04:26.227Z,3.63
2023-03-22T08:09:33.556Z,4.00
2023-03-22T08:12:05.523Z,3.90
2023-03-22T08:14:36.763Z,4.55
2023-03-22T08:17:09.895Z,4.25
2023-03-22T08:19:40.528Z,4.35
2023-03-22T08:22:09.442Z,4.10
2023-03-22T08:24:36.148Z,4.47
2023-03-22T08:27:05.206Z,4.18
2023-03-22T08:29:44.030Z,4.60
2023-03-22T08:32:13.226Z,4.60
2023-03-22T08:34:46.121Z,5.20
2023-03-22T08:37:32.767Z,5.40
2023-03-22T08:40:03.448Z,5.65
2023-03-22T08:45:11.113Z,6.13
2023-03-22T08:47:37.820Z,5.82
2023-03-22T08:50:07.210Z,6.10
2023-03-22T08:52:34.043Z,5.80
2023-03-22T08:55:03.443Z,5.95
2023-03-22T08:57:34.230Z,6.30
2023-03-22T09:00:12.147Z,6.40
2023-03-22T09:05:19.376Z,6.63
2023-03-22T09:07:46.811Z,7.00
2023-03-22T09:23:26.635Z,7.53
2023-03-22T09:25:55.779Z,7.43
2023-03-22T09:28:25.261Z,7.40
2023-03-22T09:30:55.119Z,7.80
2023-03-22T09:33:24.058Z,8.15
2023-03-22T09:35:50.776Z,8.00
2023-03-22T09:38:22.670Z,7.68
2023-03-22T09:41:00.612Z,8.02
2023-03-22T09:43:30.612Z,7.68
2023-03-22T09:46:03.694Z,8.02
2023-03-22T09:48:36.046Z,8.77
2023-03-22T09:51:03.629Z,8.13
2023-03-22T09:53:30.538Z,8.65
2023-03-22T09:56:02.666Z,8.05
2023-03-22T09:58:44.518Z,8.90
2023-03-22T10:01:35.215Z,8.98
2023-03-22T10:04:39.995Z,8.80
2023-03-22T10:07:12.193Z,9.00
2023-03-22T10:10:01.090Z,9.32
2023-03-22T10:12:36.021Z,9.57
2023-03-22T10:15:27.134Z,9.30
2023-03-22T10:17:54.941Z,10.23
2023-03-22T10:20:30.259Z,9.35
2023-03-22T10:22:56.929Z,9.27
2023-03-22T10:25:29.803Z,8.50
2023-03-22T10:28:01.117Z,9.43
2023-03-22T10:30:43.357Z,9.80
2023-03-22T10:33:14.853Z,9.18
2023-03-22T10:35:41.563Z,9.45
2023-03-22T10:38:13.380Z,9.35
2023-03-22T10:40:44.667Z,9.48
2023-03-22T10:43:23.972Z,9.23
2023-03-22T10:45:52.328Z,8.85
2023-03-22T10:48:32.304Z,9.02
2023-03-22T10:51:01.513Z,9.32
2023-03-22T10:53:34.836Z,9.15
2023-03-22T10:56:06.443Z,8.50
2023-03-22T10:58:38.355Z,8.57
2023-03-22T11:01:09.696Z,8.63
2023-03-22T11:03:36.496Z,8.55
2023-03-22T11:06:06.759Z,8.23
2023-03-22T11:08:39.538Z,8.50
2023-03-22T11:11:09.913Z,7.93
2023-03-22T11:13:36.693Z,8.57
2023-03-22T11:16:08.022Z,8.15
2023-03-22T11:18:37.583Z,7.70
2023-03-22T11:21:05.862Z,8.30
2023-03-22T11:23:38.702Z,7.82
2023-03-22T11:26:10.631Z,8.10
2023-03-22T11:28:48.392Z,7.60
2023-03-22T11:31:22.316Z,8.10
2023-03-22T11:33:55.467Z,7.60
2023-03-22T11:36:28.252Z,8.07
2023-03-22T11:39:06.310Z,7.55
2023-03-22T11:41:39.547Z,7.65
2023-03-22T11:44:27.405Z,7.78
2023-03-22T11:47:00.326Z,7.45
2023-03-22T11:49:48.097Z,7.43
2023-03-22T11:52:21.413Z,7.32
2023-03-22T11:54:50.410Z,7.57
2023-03-22T11:57:22.775Z,7.88
2023-03-22T11:59:57.817Z,7.78
2023-03-22T12:02:34.537Z,7.90
2023-03-22T12:05:09.453Z,7.47
2023-03-22T12:07:36.096Z,7.07
2023-03-22T12:10:03.366Z,6.93
2023-03-22T12:12:33.426Z,7.03
2023-03-22T12:15:05.798Z,7.07
2023-03-22T12:17:34.968Z,6.63
2023-03-22T12:20:23.589Z,7.00
2023-03-22T12:22:54.429Z,6.65
2023-03-22T12:25:29.813Z,5.68
2023-03-22T12:28:04.225Z,5.88
2023-03-22T12:30:34.180Z,5.47
2023-03-22T12:33:06.732Z,5.85
2023-03-22T12:35:40.038Z,5.47
2023-03-22T12:38:16.926Z,5.50
2023-03-22T12:40:45.668Z,5.85
2023-03-22T12:43:24.210Z,5.25
2023-03-22T12:45:55.418Z,5.85
2023-03-22T12:51:04.306Z,5.30
2023-03-22T12:53:59.838Z,5.60
2023-03-22T12:56:37.341Z,5.35
2023-03-22T12:59:33.772Z,5.22
2023-03-22T13:02:23.134Z,4.70
2023-03-22T13:04:56.034Z,5.13
2023-03-22T13:07:31.849Z,4.85
2023-03-22T13:09:59.358Z,4.60
2023-03-22T13:12:28.003Z,5.72
2023-03-22T13:15:42.201Z,4.68
2023-03-22T13:18:33.466Z,4.70
2023-03-22T13:21:21.320Z,4.88
2023-03-22T13:24:04.689Z,4.68
2023-03-22T13:26:45.656Z,3.80
2023-03-22T13:29:22.306Z,4.00
2023-03-22T13:31:52.046Z,4.00
2023-03-22T13:34:20.303Z,4.85
2023-03-22T13:36:55.155Z,4.38
2023-03-22T13:39:25.075Z,4.53
2023-03-22T13:42:17.478Z,4.65
2023-03-22T13:44:46.111Z,4.47
2023-03-22T13:47:34.119Z,4.25
2023-03-22T13:50:19.173Z,4.82
2023-03-22T13:52:57.422Z,4.60
2023-03-22T13:55:51.936Z,4.03
2023-03-22T13:58:36.155Z,4.07
2023-03-22T14:01:11.055Z,4.45
2023-03-22T14:03:39.087Z,4.20
2023-03-22T14:06:09.589Z,4.25
2023-03-22T14:08:41.427Z,3.97
2023-03-22T14:11:17.649Z,3.95
2023-03-22T14:13:47.219Z,4.57
2023-03-22T14:16:21.971Z,4.13
2023-03-22T14:18:51.851Z,4.25
2023-03-22T14:21:21.519Z,3.92
